sensor_id;sensor_type;location;lat;lon;timestamp;P1;durP1;ratioP1;P2;durP2;ratioP2
67768;SDS011;54569;52.018;5.584;2023-02-15T00:00:20;16.38;;;12.65;;
67768;SDS011;54569;52.018;5.584;2023-02-15T00:02:46;16.25;;;10.95;;
67768;SDS011;54569;52.018;5.584;2023-02-15T00:05:12;21.17;;;12.82;;
67768;SDS011;54569;52.018;5.584;2023-02-15T00:07:37;17.38;;;12.52;;
67768;SDS011;54569;52.018;5.584;2023-02-15T00:10:03;20.58;;;12.98;;
67768;SDS011;54569;52.018;5.584;2023-02-15T00:12:30;16.67;;;12.35;;
67768;SDS011;54569;52.018;5.584;2023-02-15T00:14:55;17.95;;;13.35;;
67768;SDS011;54569;52.018;5.584;2023-02-15T00:17:21;13.43;;;11.70;;
67768;SDS011;54569;52.018;5.584;2023-02-15T00:19:46;12.57;;;11.27;;
67768;SDS011;54569;52.018;5.584;2023-02-15T00:22:12;14.32;;;11.07;;
67768;SDS011;54569;52.018;5.584;2023-02-15T00:24:38;15.20;;;12.30;;
67768;SDS011;54569;52.018;5.584;2023-02-15T00:27:03;13.30;;;12.02;;
67768;SDS011;54569;52.018;5.584;2023-02-15T00:29:29;14.05;;;12.57;;
67768;SDS011;54569;52.018;5.584;2023-02-15T00:31:55;12.27;;;11.00;;
67768;SDS011;54569;52.018;5.584;2023-02-15T00:34:23;13.45;;;11.88;;
67768;SDS011;54569;52.018;5.584;2023-02-15T00:36:50;13.35;;;12.00;;
67768;SDS011;54569;52.018;5.584;2023-02-15T00:39:16;14.07;;;12.52;;
67768;SDS011;54569;52.018;5.584;2023-02-15T00:41:43;15.05;;;13.45;;
67768;SDS011;54569;52.018;5.584;2023-02-15T00:44:09;14.23;;;12.73;;
67768;SDS011;54569;52.018;5.584;2023-02-15T00:46:35;14.43;;;12.93;;
67768;SDS011;54569;52.018;5.584;2023-02-15T00:49:01;14.30;;;12.15;;
67768;SDS011;54569;52.018;5.584;2023-02-15T00:51:28;16.25;;;13.95;;
67768;SDS011;54569;52.018;5.584;2023-02-15T00:53:54;15.60;;;13.82;;
67768;SDS011;54569;52.018;5.584;2023-02-15T00:56:19;14.93;;;13.32;;
67768;SDS011;54569;52.018;5.584;2023-02-15T00:58:45;16.92;;;14.73;;
67768;SDS011;54569;52.018;5.584;2023-02-15T01:01:13;20.50;;;14.82;;
67768;SDS011;54569;52.018;5.584;2023-02-15T01:03:41;17.98;;;13.95;;
67768;SDS011;54569;52.018;5.584;2023-02-15T01:06:08;21.13;;;14.18;;
67768;SDS011;54569;52.018;5.584;2023-02-15T01:08:34;18.52;;;14.38;;
67768;SDS011;54569;52.018;5.584;2023-02-15T01:11:04;18.10;;;14.43;;
67768;SDS011;54569;52.018;5.584;2023-02-15T01:13:30;20.73;;;14.45;;
67768;SDS011;54569;52.018;5.584;2023-02-15T01:15:56;19.20;;;14.38;;
67768;SDS011;54569;52.018;5.584;2023-02-15T01:18:22;17.45;;;13.63;;
67768;SDS011;54569;52.018;5.584;2023-02-15T01:20:48;19.92;;;14.45;;
67768;SDS011;54569;52.018;5.584;2023-02-15T01:23:14;17.52;;;13.98;;
67768;SDS011;54569;52.018;5.584;2023-02-15T01:25:40;17.70;;;13.48;;
67768;SDS011;54569;52.018;5.584;2023-02-15T01:28:06;17.98;;;13.45;;
67768;SDS011;54569;52.018;5.584;2023-02-15T01:30:32;18.17;;;13.02;;
67768;SDS011;54569;52.018;5.584;2023-02-15T01:32:58;17.50;;;13.38;;
67768;SDS011;54569;52.018;5.584;2023-02-15T01:35:26;15.23;;;12.82;;
67768;SDS011;54569;52.018;5.584;2023-02-15T01:37:53;14.07;;;11.68;;
67768;SDS011;54569;52.018;5.584;2023-02-15T01:40:20;16.83;;;13.25;;
67768;SDS011;54569;52.018;5.584;2023-02-15T01:42:46;14.95;;;13.18;;
67768;SDS011;54569;52.018;5.584;2023-02-15T01:50:37;17.65;;;12.90;;
67768;SDS011;54569;52.018;5.584;2023-02-15T01:55:45;18.70;;;14.55;;
67768;SDS011;54569;52.018;5.584;2023-02-15T01:58:14;20.95;;;14.25;;
67768;SDS011;54569;52.018;5.584;2023-02-15T02:00:41;23.15;;;15.20;;
67768;SDS011;54569;52.018;5.584;2023-02-15T02:03:08;26.45;;;16.08;;
67768;SDS011;54569;52.018;5.584;2023-02-15T02:05:34;21.63;;;15.52;;
67768;SDS011;54569;52.018;5.584;2023-02-15T02:08:00;21.02;;;15.38;;
67768;SDS011;54569;52.018;5.584;2023-02-15T02:10:27;19.23;;;14.65;;
67768;SDS011;54569;52.018;5.584;2023-02-15T02:12:57;18.27;;;13.05;;
67768;SDS011;54569;52.018;5.584;2023-02-15T02:15:39;17.38;;;13.50;;
67768;SDS011;54569;52.018;5.584;2023-02-15T02:24:15;23.00;;;14.95;;
67768;SDS011;54569;52.018;5.584;2023-02-15T02:29:26;23.17;;;16.27;;
67768;SDS011;54569;52.018;5.584;2023-02-15T02:35:02;19.35;;;13.40;;
67768;SDS011;54569;52.018;5.584;2023-02-15T02:37:59;18.90;;;14.32;;
67768;SDS011;54569;52.018;5.584;2023-02-15T02:43:29;20.23;;;12.93;;
67768;SDS011;54569;52.018;5.584;2023-02-15T02:46:02;18.15;;;14.00;;
67768;SDS011;54569;52.018;5.584;2023-02-15T02:51:11;22.20;;;14.90;;
67768;SDS011;54569;52.018;5.584;2023-02-15T02:53:41;22.50;;;15.25;;
67768;SDS011;54569;52.018;5.584;2023-02-15T02:56:10;22.90;;;15.02;;
67768;SDS011;54569;52.018;5.584;2023-02-15T02:58:49;24.60;;;16.35;;
67768;SDS011;54569;52.018;5.584;2023-02-15T03:03:57;26.40;;;16.55;;
67768;SDS011;54569;52.018;5.584;2023-02-15T03:06:29;22.65;;;16.23;;
67768;SDS011;54569;52.018;5.584;2023-02-15T03:09:11;24.55;;;16.25;;
67768;SDS011;54569;52.018;5.584;2023-02-15T03:11:41;26.05;;;15.63;;
67768;SDS011;54569;52.018;5.584;2023-02-15T03:14:09;27.95;;;16.77;;
67768;SDS011;54569;52.018;5.584;2023-02-15T03:16:36;22.88;;;15.40;;
67768;SDS011;54569;52.018;5.584;2023-02-15T03:19:07;24.02;;;16.80;;
67768;SDS011;54569;52.018;5.584;2023-02-15T03:21:47;25.02;;;16.25;;
67768;SDS011;54569;52.018;5.584;2023-02-15T03:24:44;23.58;;;15.75;;
67768;SDS011;54569;52.018;5.584;2023-02-15T03:27:22;20.80;;;14.88;;
67768;SDS011;54569;52.018;5.584;2023-02-15T03:29:56;25.02;;;15.15;;
67768;SDS011;54569;52.018;5.584;2023-02-15T03:32:24;23.00;;;15.48;;
67768;SDS011;54569;52.018;5.584;2023-02-15T03:34:53;25.45;;;16.88;;
67768;SDS011;54569;52.018;5.584;2023-02-15T03:43:13;26.30;;;16.58;;
67768;SDS011;54569;52.018;5.584;2023-02-15T03:45:44;31.77;;;16.98;;
67768;SDS011;54569;52.018;5.584;2023-02-15T03:48:24;26.73;;;16.10;;
67768;SDS011;54569;52.018;5.584;2023-02-15T03:50:55;25.50;;;16.98;;
67768;SDS011;54569;52.018;5.584;2023-02-15T03:53:44;27.90;;;16.85;;
67768;SDS011;54569;52.018;5.584;2023-02-15T03:56:11;26.52;;;17.13;;
67768;SDS011;54569;52.018;5.584;2023-02-15T03:58:37;25.42;;;16.13;;
67768;SDS011;54569;52.018;5.584;2023-02-15T04:01:29;26.08;;;16.40;;
67768;SDS011;54569;52.018;5.584;2023-02-15T04:04:13;22.60;;;15.98;;
67768;SDS011;54569;52.018;5.584;2023-02-15T04:06:43;26.02;;;15.60;;
67768;SDS011;54569;52.018;5.584;2023-02-15T04:09:08;26.20;;;16.58;;
67768;SDS011;54569;52.018;5.584;2023-02-15T04:11:53;26.00;;;15.80;;
67768;SDS011;54569;52.018;5.584;2023-02-15T04:14:18;25.45;;;15.40;;
67768;SDS011;54569;52.018;5.584;2023-02-15T04:17:05;28.45;;;16.35;;
67768;SDS011;54569;52.018;5.584;2023-02-15T04:19:34;24.48;;;15.32;;
67768;SDS011;54569;52.018;5.584;2023-02-15T04:22:18;29.20;;;16.15;;
67768;SDS011;54569;52.018;5.584;2023-02-15T04:25:02;26.15;;;16.48;;
67768;SDS011;54569;52.018;5.584;2023-02-15T04:27:35;28.30;;;17.33;;
67768;SDS011;54569;52.018;5.584;2023-02-15T04:30:02;26.25;;;16.38;;
67768;SDS011;54569;52.018;5.584;2023-02-15T04:32:28;23.83;;;16.02;;
67768;SDS011;54569;52.018;5.584;2023-02-15T04:34:54;26.42;;;15.80;;
67768;SDS011;54569;52.018;5.584;2023-02-15T04:37:19;28.25;;;16.35;;
67768;SDS011;54569;52.018;5.584;2023-02-15T04:39:45;25.05;;;17.20;;
67768;SDS011;54569;52.018;5.584;2023-02-15T04:42:11;27.63;;;17.85;;
67768;SDS011;54569;52.018;5.584;2023-02-15T04:44:37;25.75;;;15.73;;
67768;SDS011;54569;52.018;5.584;2023-02-15T04:47:02;27.42;;;15.68;;
67768;SDS011;54569;52.018;5.584;2023-02-15T04:49:28;31.45;;;17.13;;
67768;SDS011;54569;52.018;5.584;2023-02-15T04:51:54;31.63;;;16.92;;
67768;SDS011;54569;52.018;5.584;2023-02-15T04:54:19;29.52;;;16.13;;
67768;SDS011;54569;52.018;5.584;2023-02-15T04:56:45;25.85;;;15.75;;
67768;SDS011;54569;52.018;5.584;2023-02-15T04:59:11;29.08;;;17.08;;
67768;SDS011;54569;52.018;5.584;2023-02-15T05:01:38;27.40;;;16.55;;
67768;SDS011;54569;52.018;5.584;2023-02-15T05:04:03;29.65;;;17.55;;
67768;SDS011;54569;52.018;5.584;2023-02-15T05:06:29;25.40;;;15.70;;
67768;SDS011;54569;52.018;5.584;2023-02-15T05:08:55;25.83;;;16.45;;
67768;SDS011;54569;52.018;5.584;2023-02-15T05:11:23;29.65;;;16.80;;
67768;SDS011;54569;52.018;5.584;2023-02-15T05:13:49;26.23;;;16.10;;
67768;SDS011;54569;52.018;5.584;2023-02-15T05:16:15;28.95;;;17.13;;
67768;SDS011;54569;52.018;5.584;2023-02-15T05:18:41;26.50;;;17.13;;
67768;SDS011;54569;52.018;5.584;2023-02-15T05:21:07;28.80;;;16.65;;
67768;SDS011;54569;52.018;5.584;2023-02-15T05:23:32;28.85;;;16.42;;
67768;SDS011;54569;52.018;5.584;2023-02-15T05:25:58;23.85;;;16.23;;
67768;SDS011;54569;52.018;5.584;2023-02-15T05:28:56;26.05;;;16.05;;
67768;SDS011;54569;52.018;5.584;2023-02-15T05:31:22;25.88;;;14.98;;
67768;SDS011;54569;52.018;5.584;2023-02-15T05:33:47;24.25;;;16.05;;
67768;SDS011;54569;52.018;5.584;2023-02-15T05:36:13;27.30;;;16.40;;
67768;SDS011;54569;52.018;5.584;2023-02-15T05:38:39;25.08;;;15.48;;
67768;SDS011;54569;52.018;5.584;2023-02-15T05:41:05;28.08;;;17.33;;
67768;SDS011;54569;52.018;5.584;2023-02-15T05:43:32;25.40;;;16.80;;
67768;SDS011;54569;52.018;5.584;2023-02-15T05:45:58;28.02;;;17.77;;
67768;SDS011;54569;52.018;5.584;2023-02-15T05:48:25;29.15;;;15.95;;
67768;SDS011;54569;52.018;5.584;2023-02-15T05:53:31;27.35;;;16.27;;
67768;SDS011;54569;52.018;5.584;2023-02-15T05:55:58;29.17;;;16.90;;
67768;SDS011;54569;52.018;5.584;2023-02-15T05:58:25;29.85;;;18.02;;
67768;SDS011;54569;52.018;5.584;2023-02-15T06:00:52;28.15;;;16.60;;
67768;SDS011;54569;52.018;5.584;2023-02-15T06:03:18;29.98;;;17.20;;
67768;SDS011;54569;52.018;5.584;2023-02-15T06:05:44;31.60;;;17.05;;
67768;SDS011;54569;52.018;5.584;2023-02-15T06:08:09;29.05;;;17.58;;
67768;SDS011;54569;52.018;5.584;2023-02-15T06:10:35;29.15;;;17.75;;
67768;SDS011;54569;52.018;5.584;2023-02-15T06:13:01;28.13;;;17.75;;
67768;SDS011;54569;52.018;5.584;2023-02-15T06:15:26;25.85;;;16.40;;
67768;SDS011;54569;52.018;5.584;2023-02-15T06:17:52;27.90;;;18.10;;
67768;SDS011;54569;52.018;5.584;2023-02-15T06:20:18;26.50;;;16.52;;
67768;SDS011;54569;52.018;5.584;2023-02-15T06:22:43;28.73;;;16.75;;
67768;SDS011;54569;52.018;5.584;2023-02-15T06:25:09;25.55;;;16.48;;
67768;SDS011;54569;52.018;5.584;2023-02-15T06:27:36;30.67;;;18.08;;
67768;SDS011;54569;52.018;5.584;2023-02-15T06:30:02;28.83;;;16.92;;
67768;SDS011;54569;52.018;5.584;2023-02-15T06:32:30;26.42;;;16.83;;
67768;SDS011;54569;52.018;5.584;2023-02-15T06:34:56;31.35;;;17.52;;
67768;SDS011;54569;52.018;5.584;2023-02-15T06:37:22;27.80;;;16.75;;
67768;SDS011;54569;52.018;5.584;2023-02-15T06:39:53;32.03;;;16.17;;
67768;SDS011;54569;52.018;5.584;2023-02-15T06:42:18;28.20;;;15.77;;
67768;SDS011;54569;52.018;5.584;2023-02-15T06:44:45;28.08;;;15.93;;
67768;SDS011;54569;52.018;5.584;2023-02-15T06:47:11;28.42;;;15.55;;
67768;SDS011;54569;52.018;5.584;2023-02-15T06:49:37;26.25;;;16.20;;
67768;SDS011;54569;52.018;5.584;2023-02-15T06:52:03;26.42;;;16.52;;
67768;SDS011;54569;52.018;5.584;2023-02-15T06:54:29;27.73;;;16.42;;
67768;SDS011;54569;52.018;5.584;2023-02-15T06:56:54;27.45;;;17.80;;
67768;SDS011;54569;52.018;5.584;2023-02-15T06:59:20;28.15;;;16.80;;
67768;SDS011;54569;52.018;5.584;2023-02-15T07:01:46;29.48;;;17.52;;
67768;SDS011;54569;52.018;5.584;2023-02-15T07:04:12;31.15;;;17.65;;
67768;SDS011;54569;52.018;5.584;2023-02-15T07:06:37;29.30;;;17.17;;
67768;SDS011;54569;52.018;5.584;2023-02-15T07:09:03;28.40;;;17.70;;
67768;SDS011;54569;52.018;5.584;2023-02-15T07:11:29;30.70;;;17.92;;
67768;SDS011;54569;52.018;5.584;2023-02-15T07:14:13;31.98;;;17.95;;
67768;SDS011;54569;52.018;5.584;2023-02-15T07:16:39;31.25;;;17.48;;
67768;SDS011;54569;52.018;5.584;2023-02-15T07:19:05;30.73;;;17.90;;
67768;SDS011;54569;52.018;5.584;2023-02-15T07:21:32;29.23;;;17.48;;
67768;SDS011;54569;52.018;5.584;2023-02-15T07:23:58;25.85;;;16.58;;
67768;SDS011;54569;52.018;5.584;2023-02-15T07:26:24;30.60;;;18.45;;
67768;SDS011;54569;52.018;5.584;2023-02-15T07:28:50;30.77;;;17.17;;
67768;SDS011;54569;52.018;5.584;2023-02-15T07:31:16;26.17;;;16.75;;
67768;SDS011;54569;52.018;5.584;2023-02-15T07:33:41;26.38;;;16.50;;
67768;SDS011;54569;52.018;5.584;2023-02-15T07:36:07;32.20;;;17.13;;
67768;SDS011;54569;52.018;5.584;2023-02-15T07:38:37;33.72;;;19.25;;
67768;SDS011;54569;52.018;5.584;2023-02-15T07:41:09;28.10;;;17.00;;
67768;SDS011;54569;52.018;5.584;2023-02-15T07:43:37;29.90;;;18.20;;
67768;SDS011;54569;52.018;5.584;2023-02-15T07:46:07;27.33;;;17.63;;
67768;SDS011;54569;52.018;5.584;2023-02-15T07:48:35;28.48;;;16.70;;
67768;SDS011;54569;52.018;5.584;2023-02-15T07:51:02;29.95;;;17.15;;
67768;SDS011;54569;52.018;5.584;2023-02-15T07:53:29;28.30;;;17.63;;
67768;SDS011;54569;52.018;5.584;2023-02-15T07:55:58;28.27;;;16.35;;
67768;SDS011;54569;52.018;5.584;2023-02-15T07:58:25;27.75;;;16.58;;
67768;SDS011;54569;52.018;5.584;2023-02-15T08:01:11;26.45;;;16.15;;
67768;SDS011;54569;52.018;5.584;2023-02-15T08:03:37;26.35;;;16.25;;
67768;SDS011;54569;52.018;5.584;2023-02-15T08:06:02;25.08;;;16.30;;
67768;SDS011;54569;52.018;5.584;2023-02-15T08:08:28;24.65;;;15.48;;
67768;SDS011;54569;52.018;5.584;2023-02-15T08:11:18;22.48;;;15.93;;
67768;SDS011;54569;52.018;5.584;2023-02-15T08:14:08;21.65;;;15.05;;
67768;SDS011;54569;52.018;5.584;2023-02-15T08:16:50;25.50;;;15.70;;
67768;SDS011;54569;52.018;5.584;2023-02-15T08:19:18;27.75;;;16.35;;
67768;SDS011;54569;52.018;5.584;2023-02-15T08:21:52;22.67;;;14.98;;
67768;SDS011;54569;52.018;5.584;2023-02-15T08:24:22;25.27;;;16.10;;
67768;SDS011;54569;52.018;5.584;2023-02-15T08:26:50;25.45;;;16.48;;
67768;SDS011;54569;52.018;5.584;2023-02-15T08:29:17;24.75;;;16.48;;
67768;SDS011;54569;52.018;5.584;2023-02-15T08:31:45;24.90;;;15.80;;
67768;SDS011;54569;52.018;5.584;2023-02-15T08:34:13;24.10;;;16.08;;
67768;SDS011;54569;52.018;5.584;2023-02-15T08:36:41;26.40;;;17.10;;
67768;SDS011;54569;52.018;5.584;2023-02-15T08:39:06;22.83;;;16.60;;
67768;SDS011;54569;52.018;5.584;2023-02-15T08:41:36;25.00;;;16.88;;
67768;SDS011;54569;52.018;5.584;2023-02-15T08:44:03;26.40;;;18.00;;
67768;SDS011;54569;52.018;5.584;2023-02-15T08:46:33;25.33;;;17.27;;
67768;SDS011;54569;52.018;5.584;2023-02-15T08:49:01;22.98;;;17.38;;
67768;SDS011;54569;52.018;5.584;2023-02-15T08:51:29;23.77;;;16.85;;
67768;SDS011;54569;52.018;5.584;2023-02-15T08:53:57;23.70;;;18.00;;
67768;SDS011;54569;52.018;5.584;2023-02-15T08:56:28;23.10;;;17.13;;
67768;SDS011;54569;52.018;5.584;2023-02-15T08:58:55;24.50;;;17.23;;
67768;SDS011;54569;52.018;5.584;2023-02-15T09:01:22;23.75;;;18.33;;
67768;SDS011;54569;52.018;5.584;2023-02-15T09:03:50;24.73;;;18.88;;
67768;SDS011;54569;52.018;5.584;2023-02-15T09:06:20;21.33;;;17.33;;
67768;SDS011;54569;52.018;5.584;2023-02-15T09:08:47;24.23;;;18.60;;
67768;SDS011;54569;52.018;5.584;2023-02-15T09:11:23;24.85;;;19.13;;
67768;SDS011;54569;52.018;5.584;2023-02-15T09:14:00;25.90;;;20.00;;
67768;SDS011;54569;52.018;5.584;2023-02-15T09:16:29;25.42;;;20.40;;
67768;SDS011;54569;52.018;5.584;2023-02-15T09:18:57;26.17;;;20.15;;
67768;SDS011;54569;52.018;5.584;2023-02-15T09:21:25;24.52;;;18.80;;
67768;SDS011;54569;52.018;5.584;2023-02-15T09:23:51;23.92;;;20.27;;
67768;SDS011;54569;52.018;5.584;2023-02-15T09:26:22;25.83;;;20.42;;
67768;SDS011;54569;52.018;5.584;2023-02-15T09:28:51;22.58;;;19.23;;
67768;SDS011;54569;52.018;5.584;2023-02-15T09:31:21;25.48;;;18.90;;
67768;SDS011;54569;52.018;5.584;2023-02-15T09:33:49;27.63;;;20.77;;
67768;SDS011;54569;52.018;5.584;2023-02-15T09:36:15;26.15;;;20.75;;
67768;SDS011;54569;52.018;5.584;2023-02-15T09:39:31;28.38;;;21.25;;
67768;SDS011;54569;52.018;5.584;2023-02-15T09:50:15;26.88;;;20.80;;
67768;SDS011;54569;52.018;5.584;2023-02-15T10:01:20;27.38;;;21.27;;
67768;SDS011;54569;52.018;5.584;2023-02-15T10:04:01;28.55;;;22.67;;
67768;SDS011;54569;52.018;5.584;2023-02-15T10:09:45;28.95;;;22.73;;
67768;SDS011;54569;52.018;5.584;2023-02-15T10:12:20;27.13;;;22.08;;
67768;SDS011;54569;52.018;5.584;2023-02-15T10:17:46;28.58;;;22.23;;
67768;SDS011;54569;52.018;5.584;2023-02-15T10:26:19;28.80;;;22.95;;
67768;SDS011;54569;52.018;5.584;2023-02-15T10:31:48;28.63;;;23.17;;
67768;SDS011;54569;52.018;5.584;2023-02-15T10:34:19;26.20;;;21.30;;
67768;SDS011;54569;52.018;5.584;2023-02-15T10:37:01;26.73;;;23.55;;
67768;SDS011;54569;52.018;5.584;2023-02-15T11:06:43;27.60;;;24.58;;
67768;SDS011;54569;52.018;5.584;2023-02-15T11:09:16;27.67;;;23.38;;
67768;SDS011;54569;52.018;5.584;2023-02-15T11:11:48;28.02;;;24.20;;
67768;SDS011;54569;52.018;5.584;2023-02-15T11:16:59;29.08;;;23.52;;
67768;SDS011;54569;52.018;5.584;2023-02-15T11:19:55;28.52;;;24.70;;
67768;SDS011;54569;52.018;5.584;2023-02-15T11:22:28;29.00;;;25.70;;
67768;SDS011;54569;52.018;5.584;2023-02-15T11:24:59;28.42;;;25.30;;
67768;SDS011;54569;52.018;5.584;2023-02-15T11:27:28;28.17;;;25.08;;
67768;SDS011;54569;52.018;5.584;2023-02-15T11:30:05;31.75;;;24.27;;
67768;SDS011;54569;52.018;5.584;2023-02-15T11:32:44;29.40;;;24.20;;
67768;SDS011;54569;52.018;5.584;2023-02-15T11:35:22;26.58;;;22.83;;
67768;SDS011;54569;52.018;5.584;2023-02-15T11:40:49;29.27;;;25.02;;
67768;SDS011;54569;52.018;5.584;2023-02-15T11:43:27;29.17;;;24.50;;
67768;SDS011;54569;52.018;5.584;2023-02-15T11:45:59;30.75;;;25.02;;
67768;SDS011;54569;52.018;5.584;2023-02-15T11:48:24;28.98;;;25.30;;
67768;SDS011;54569;52.018;5.584;2023-02-15T11:50:50;30.05;;;25.98;;
67768;SDS011;54569;52.018;5.584;2023-02-15T11:53:17;30.42;;;24.45;;
67768;SDS011;54569;52.018;5.584;2023-02-15T11:55:55;30.52;;;25.38;;
67768;SDS011;54569;52.018;5.584;2023-02-15T12:03:56;32.75;;;25.70;;
67768;SDS011;54569;52.018;5.584;2023-02-15T12:06:45;32.30;;;25.20;;
67768;SDS011;54569;52.018;5.584;2023-02-15T12:10:26;29.70;;;23.50;;
67768;SDS011;54569;52.018;5.584;2023-02-15T12:12:36;34.33;;;26.23;;
67768;SDS011;54569;52.018;5.584;2023-02-15T12:15:15;35.28;;;25.50;;
67768;SDS011;54569;52.018;5.584;2023-02-15T12:17:58;34.47;;;26.67;;
67768;SDS011;54569;52.018;5.584;2023-02-15T12:20:28;34.58;;;24.58;;
67768;SDS011;54569;52.018;5.584;2023-02-15T12:22:59;33.28;;;24.73;;
67768;SDS011;54569;52.018;5.584;2023-02-15T12:27:58;32.90;;;25.38;;
67768;SDS011;54569;52.018;5.584;2023-02-15T12:32:58;35.40;;;24.35;;
67768;SDS011;54569;52.018;5.584;2023-02-15T12:35:31;32.17;;;23.52;;
67768;SDS011;54569;52.018;5.584;2023-02-15T12:38:01;35.90;;;26.02;;
67768;SDS011;54569;52.018;5.584;2023-02-15T12:40:36;33.40;;;24.63;;
67768;SDS011;54569;52.018;5.584;2023-02-15T12:43:03;32.53;;;25.20;;
67768;SDS011;54569;52.018;5.584;2023-02-15T12:45:53;31.20;;;24.58;;
67768;SDS011;54569;52.018;5.584;2023-02-15T12:48:45;32.83;;;25.13;;
67768;SDS011;54569;52.018;5.584;2023-02-15T12:51:13;34.10;;;24.35;;
67768;SDS011;54569;52.018;5.584;2023-02-15T12:53:40;34.80;;;26.02;;
67768;SDS011;54569;52.018;5.584;2023-02-15T12:56:07;32.47;;;24.90;;
67768;SDS011;54569;52.018;5.584;2023-02-15T12:58:37;34.30;;;25.33;;
67768;SDS011;54569;52.018;5.584;2023-02-15T13:01:14;36.78;;;25.75;;
67768;SDS011;54569;52.018;5.584;2023-02-15T13:03:54;31.83;;;23.63;;
67768;SDS011;54569;52.018;5.584;2023-02-15T13:06:30;34.05;;;24.33;;
67768;SDS011;54569;52.018;5.584;2023-02-15T13:09:05;37.05;;;24.23;;
67768;SDS011;54569;52.018;5.584;2023-02-15T13:11:42;33.78;;;24.90;;
67768;SDS011;54569;52.018;5.584;2023-02-15T13:16:55;34.88;;;25.48;;
67768;SDS011;54569;52.018;5.584;2023-02-15T13:25:24;38.13;;;25.27;;
67768;SDS011;54569;52.018;5.584;2023-02-15T13:27:53;35.55;;;25.05;;
67768;SDS011;54569;52.018;5.584;2023-02-15T13:30:24;34.72;;;25.42;;
67768;SDS011;54569;52.018;5.584;2023-02-15T13:33:10;34.72;;;25.25;;
67768;SDS011;54569;52.018;5.584;2023-02-15T13:36:04;38.90;;;25.83;;
67768;SDS011;54569;52.018;5.584;2023-02-15T13:39:14;36.88;;;25.25;;
67768;SDS011;54569;52.018;5.584;2023-02-15T13:45:01;36.00;;;25.27;;
67768;SDS011;54569;52.018;5.584;2023-02-15T14:01:10;36.47;;;25.60;;
67768;SDS011;54569;52.018;5.584;2023-02-15T14:09:13;38.72;;;26.20;;
67768;SDS011;54569;52.018;5.584;2023-02-15T14:20:46;38.92;;;26.63;;
67768;SDS011;54569;52.018;5.584;2023-02-15T14:23:38;36.85;;;25.25;;
67768;SDS011;54569;52.018;5.584;2023-02-15T14:32:04;42.03;;;26.63;;
67768;SDS011;54569;52.018;5.584;2023-02-15T14:34:53;38.88;;;27.45;;
67768;SDS011;54569;52.018;5.584;2023-02-15T14:43:11;40.00;;;25.42;;
67768;SDS011;54569;52.018;5.584;2023-02-15T14:45:53;38.67;;;26.65;;
67768;SDS011;54569;52.018;5.584;2023-02-15T14:48:30;39.00;;;25.92;;
67768;SDS011;54569;52.018;5.584;2023-02-15T14:50:58;39.47;;;25.75;;
67768;SDS011;54569;52.018;5.584;2023-02-15T14:53:37;38.17;;;25.17;;
67768;SDS011;54569;52.018;5.584;2023-02-15T14:58:36;39.63;;;25.80;;
67768;SDS011;54569;52.018;5.584;2023-02-15T15:01:09;39.10;;;26.63;;
67768;SDS011;54569;52.018;5.584;2023-02-15T15:03:36;39.33;;;26.50;;
67768;SDS011;54569;52.018;5.584;2023-02-15T15:06:34;40.80;;;26.30;;
67768;SDS011;54569;52.018;5.584;2023-02-15T15:11:54;43.30;;;25.95;;
67768;SDS011;54569;52.018;5.584;2023-02-15T15:14:38;40.58;;;25.80;;
67768;SDS011;54569;52.018;5.584;2023-02-15T15:17:06;41.65;;;26.55;;
67768;SDS011;54569;52.018;5.584;2023-02-15T15:22:17;39.35;;;25.88;;
67768;SDS011;54569;52.018;5.584;2023-02-15T15:49:10;41.17;;;27.88;;
67768;SDS011;54569;52.018;5.584;2023-02-15T15:51:40;42.25;;;26.77;;
67768;SDS011;54569;52.018;5.584;2023-02-15T15:54:41;45.58;;;27.77;;
67768;SDS011;54569;52.018;5.584;2023-02-15T15:57:03;40.63;;;27.20;;
67768;SDS011;54569;52.018;5.584;2023-02-15T15:59:30;40.95;;;28.02;;
67768;SDS011;54569;52.018;5.584;2023-02-15T16:02:07;44.85;;;28.30;;
67768;SDS011;54569;52.018;5.584;2023-02-15T16:04:36;42.65;;;27.27;;
67768;SDS011;54569;52.018;5.584;2023-02-15T16:12:46;39.40;;;25.35;;
67768;SDS011;54569;52.018;5.584;2023-02-15T16:15:14;43.45;;;28.27;;
67768;SDS011;54569;52.018;5.584;2023-02-15T16:18:00;41.92;;;26.30;;
67768;SDS011;54569;52.018;5.584;2023-02-15T16:20:31;44.45;;;28.55;;
67768;SDS011;54569;52.018;5.584;2023-02-15T16:28:28;40.00;;;26.77;;
67768;SDS011;54569;52.018;5.584;2023-02-15T16:30:58;41.17;;;26.85;;
67768;SDS011;54569;52.018;5.584;2023-02-15T16:33:37;40.78;;;26.27;;
67768;SDS011;54569;52.018;5.584;2023-02-15T16:36:04;40.90;;;26.48;;
67768;SDS011;54569;52.018;5.584;2023-02-15T16:41:14;41.15;;;26.15;;
67768;SDS011;54569;52.018;5.584;2023-02-15T16:43:43;39.83;;;26.40;;
67768;SDS011;54569;52.018;5.584;2023-02-15T16:46:13;49.50;;;27.55;;
67768;SDS011;54569;52.018;5.584;2023-02-15T16:48:45;43.80;;;27.10;;
67768;SDS011;54569;52.018;5.584;2023-02-15T16:51:23;41.83;;;27.60;;
67768;SDS011;54569;52.018;5.584;2023-02-15T16:53:52;43.95;;;28.30;;
67768;SDS011;54569;52.018;5.584;2023-02-15T16:56:22;43.75;;;26.77;;
67768;SDS011;54569;52.018;5.584;2023-02-15T16:58:50;44.38;;;28.05;;
67768;SDS011;54569;52.018;5.584;2023-02-15T17:01:19;50.05;;;29.35;;
67768;SDS011;54569;52.018;5.584;2023-02-15T17:03:48;42.83;;;26.00;;
67768;SDS011;54569;52.018;5.584;2023-02-15T17:06:25;44.85;;;27.38;;
67768;SDS011;54569;52.018;5.584;2023-02-15T17:09:02;43.45;;;27.58;;
67768;SDS011;54569;52.018;5.584;2023-02-15T17:11:33;47.15;;;28.65;;
67768;SDS011;54569;52.018;5.584;2023-02-15T17:19:00;42.45;;;26.65;;
67768;SDS011;54569;52.018;5.584;2023-02-15T17:21:31;39.40;;;26.15;;
67768;SDS011;54569;52.018;5.584;2023-02-15T17:24:00;44.70;;;26.90;;
67768;SDS011;54569;52.018;5.584;2023-02-15T17:26:30;43.78;;;27.92;;
67768;SDS011;54569;52.018;5.584;2023-02-15T17:31:56;44.92;;;25.58;;
67768;SDS011;54569;52.018;5.584;2023-02-15T17:39:50;40.22;;;25.75;;
67768;SDS011;54569;52.018;5.584;2023-02-15T17:42:16;47.80;;;28.30;;
67768;SDS011;54569;52.018;5.584;2023-02-15T17:44:41;42.42;;;26.70;;
67768;SDS011;54569;52.018;5.584;2023-02-15T17:47:09;43.95;;;26.95;;
67768;SDS011;54569;52.018;5.584;2023-02-15T17:49:41;42.57;;;27.43;;
67768;SDS011;54569;52.018;5.584;2023-02-15T17:52:09;40.88;;;26.45;;
67768;SDS011;54569;52.018;5.584;2023-02-15T17:54:41;43.40;;;27.40;;
67768;SDS011;54569;52.018;5.584;2023-02-15T17:57:26;43.28;;;26.35;;
67768;SDS011;54569;52.018;5.584;2023-02-15T17:59:53;42.88;;;27.27;;
67768;SDS011;54569;52.018;5.584;2023-02-15T18:02:37;36.40;;;24.92;;
67768;SDS011;54569;52.018;5.584;2023-02-15T18:05:22;44.55;;;27.60;;
67768;SDS011;54569;52.018;5.584;2023-02-15T18:08:09;40.63;;;25.80;;
67768;SDS011;54569;52.018;5.584;2023-02-15T18:10:58;45.20;;;27.60;;
67768;SDS011;54569;52.018;5.584;2023-02-15T18:13:43;50.90;;;28.52;;
67768;SDS011;54569;52.018;5.584;2023-02-15T18:16:16;47.08;;;28.95;;
67768;SDS011;54569;52.018;5.584;2023-02-15T18:18:45;47.25;;;28.63;;
67768;SDS011;54569;52.018;5.584;2023-02-15T18:21:11;47.38;;;28.30;;
67768;SDS011;54569;52.018;5.584;2023-02-15T18:23:37;48.85;;;27.40;;
67768;SDS011;54569;52.018;5.584;2023-02-15T18:26:04;48.92;;;28.73;;